createdAt,value
2019-05-30T03:50:17.379Z,6.17
2019-05-30T03:52:48.361Z,6.24
2019-05-30T03:55:21.665Z,6.34
2019-05-30T03:58:20.790Z,6.48
2019-05-30T04:00:54.992Z,6.65
2019-05-30T04:03:45.538Z,6.81
2019-05-30T04:06:31.600Z,6.98
2019-05-30T04:09:09.467Z,7.12
2019-05-30T04:11:57.728Z,7.30
2019-05-30T04:14:31.760Z,7.64
2019-05-30T04:17:02.958Z,8.10
2019-05-30T04:19:34.096Z,8.72
2019-05-30T04:22:07.211Z,9.33
2019-05-30T04:24:38.010Z,9.58
2019-05-30T04:27:09.954Z,9.45
2019-05-30T04:29:41.675Z,9.36
2019-05-30T04:32:14.308Z,9.59
2019-05-30T04:34:45.522Z,9.73
2019-05-30T04:37:17.158Z,9.78
2019-05-30T04:39:49.435Z,9.96
2019-05-30T04:42:20.926Z,9.87
2019-05-30T04:44:52.273Z,10.23
2019-05-30T04:47:23.445Z,10.48
2019-05-30T04:49:54.577Z,10.80
2019-05-30T04:52:25.719Z,10.97
2019-05-30T04:54:56.856Z,11.28
2019-05-30T04:57:27.983Z,11.54
2019-05-30T04:59:59.075Z,11.80
2019-05-30T05:02:30.211Z,12.24
2019-05-30T05:05:01.373Z,12.39
2019-05-30T05:07:32.685Z,12.65
2019-05-30T05:10:04.880Z,12.68
2019-05-30T05:12:35.927Z,13.01
2019-05-30T05:18:27.336Z,13.03
2019-05-30T05:20:59.253Z,13.15
2019-05-30T05:23:31.849Z,13.48
2019-05-30T05:26:04.047Z,13.48
2019-05-30T05:28:35.683Z,13.63
2019-05-30T05:31:06.954Z,13.84
2019-05-30T05:33:38.075Z,13.89
2019-05-30T05:36:09.189Z,14.37
2019-05-30T05:38:40.470Z,14.61
2019-05-30T05:41:11.583Z,14.54
2019-05-30T05:43:42.790Z,14.88
2019-05-30T05:46:16.929Z,14.91
2019-05-30T05:48:50.007Z,14.90
2019-05-30T05:51:24.801Z,15.11
2019-05-30T05:53:57.919Z,14.92
2019-05-30T05:56:30.529Z,15.31
2019-05-30T05:59:02.505Z,15.60
2019-05-30T06:01:34.365Z,15.73
2019-05-30T06:04:12.959Z,16.12
2019-05-30T06:06:40.334Z,16.43
2019-05-30T06:09:13.801Z,16.58
2019-05-30T06:11:49.066Z,16.67
2019-05-30T06:14:21.795Z,16.58
2019-05-30T06:16:56.209Z,16.64
2019-05-30T06:19:45.023Z,16.76
2019-05-30T06:22:03.265Z,17.07
2019-05-30T06:24:34.996Z,17.12
2019-05-30T06:27:07.792Z,17.30
2019-05-30T06:29:40.734Z,17.33
2019-05-30T06:32:13.334Z,17.54
2019-05-30T06:34:45.732Z,17.66
2019-05-30T06:37:19.225Z,17.71
2019-05-30T06:39:50.924Z,17.79
2019-05-30T06:42:23.764Z,18.02
2019-05-30T06:44:54.896Z,18.29
2019-05-30T06:47:26.301Z,17.96
2019-05-30T06:49:57.535Z,17.74
2019-05-30T06:52:29.198Z,18.34
2019-05-30T06:55:00.711Z,18.73
2019-05-30T06:57:32.141Z,18.73
2019-05-30T07:00:04.858Z,18.37
2019-05-30T07:02:36.534Z,18.82
2019-05-30T07:05:09.903Z,18.99
2019-05-30T07:07:41.703Z,19.19
2019-05-30T07:10:13.593Z,19.01
2019-05-30T07:12:45.675Z,18.93
2019-05-30T07:15:18.239Z,18.67
2019-05-30T07:17:49.384Z,18.58
2019-05-30T07:20:21.075Z,18.47
2019-05-30T07:22:52.387Z,18.50
2019-05-30T07:25:23.910Z,18.19
2019-05-30T07:27:55.043Z,18.23
2019-05-30T07:30:26.319Z,18.45
2019-05-30T07:32:57.636Z,18.59
2019-05-30T07:35:29.947Z,19.18
2019-05-30T07:38:01.257Z,19.25
2019-05-30T07:40:32.794Z,19.63
2019-05-30T07:43:11.539Z,19.68
2019-05-30T07:45:48.606Z,19.41
2019-05-30T07:48:15.562Z,19.57
2019-05-30T07:50:46.817Z,19.74
2019-05-30T07:53:17.886Z,18.64
2019-05-30T07:55:48.948Z,18.16
2019-05-30T07:58:20.068Z,18.86
2019-05-30T08:00:51.192Z,18.50
2019-05-30T08:03:22.294Z,18.79
2019-05-30T08:05:53.404Z,18.71
2019-05-30T08:08:24.589Z,19.24
2019-05-30T08:11:08.476Z,19.26
2019-05-30T08:13:29.021Z,19.18
2019-05-30T08:16:00.293Z,19.09
2019-05-30T08:18:31.700Z,19.55
2019-05-30T08:21:02.813Z,19.32
2019-05-30T08:23:34.283Z,18.85
2019-05-30T08:26:06.544Z,18.90
2019-05-30T08:28:38.671Z,19.07
2019-05-30T08:31:10.486Z,18.76
2019-05-30T08:33:42.211Z,18.98
2019-05-30T08:36:13.319Z,19.31
2019-05-30T08:38:47.982Z,19.84
2019-05-30T08:41:17.499Z,19.93
2019-05-30T08:43:48.595Z,20.26
2019-05-30T08:46:19.785Z,19.72
2019-05-30T08:48:50.920Z,19.75
2019-05-30T08:51:22.437Z,20.22
2019-05-30T08:53:53.699Z,19.97
2019-05-30T08:56:28.342Z,20.42
2019-05-30T08:58:57.628Z,19.86
2019-05-30T09:01:28.875Z,20.03
2019-05-30T09:04:00.131Z,19.79
2019-05-30T09:06:31.200Z,20.01
2019-05-30T09:09:02.324Z,20.10
2019-05-30T09:11:35.897Z,20.65
2019-05-30T09:14:08.234Z,20.84
2019-05-30T09:16:39.382Z,20.69
2019-05-30T09:19:10.504Z,21.15
2019-05-30T09:21:41.587Z,21.04
2019-05-30T09:24:12.735Z,20.28
2019-05-30T09:26:46.846Z,19.89
2019-05-30T09:29:16.845Z,19.60
2019-05-30T09:31:48.725Z,20.48
2019-05-30T09:34:20.206Z,20.37
2019-05-30T09:36:52.732Z,20.83
2019-05-30T09:39:23.857Z,20.46
2019-05-30T09:41:55.028Z,20.67
2019-05-30T09:44:26.142Z,21.23
2019-05-30T09:46:57.464Z,21.77
2019-05-30T09:49:28.573Z,21.54
2019-05-30T09:51:59.694Z,22.38
2019-05-30T09:54:30.850Z,22.23
2019-05-30T09:57:01.997Z,22.16
2019-05-30T09:59:34.336Z,22.46
2019-05-30T10:02:05.692Z,22.34
2019-05-30T10:04:36.868Z,22.67
2019-05-30T10:07:07.968Z,21.57
2019-05-30T10:09:40.944Z,21.61
2019-05-30T10:12:12.143Z,21.06
2019-05-30T10:14:45.172Z,20.94
2019-05-30T10:17:16.137Z,21.56
2019-05-30T10:19:48.703Z,20.91
2019-05-30T10:22:19.997Z,21.78
2019-05-30T10:24:51.292Z,21.99
2019-05-30T10:27:22.527Z,22.77
2019-05-30T10:29:53.689Z,22.07
2019-05-30T10:32:26.290Z,22.12
2019-05-30T10:34:57.708Z,21.84
2019-05-30T10:37:28.803Z,22.68
2019-05-30T10:39:59.984Z,23.10
2019-05-30T10:42:31.138Z,22.69
2019-05-30T10:45:02.233Z,22.82
2019-05-30T10:47:34.572Z,23.31
2019-05-30T10:50:09.566Z,23.18
2019-05-30T10:52:40.764Z,23.71
2019-05-30T10:55:12.635Z,23.91
2019-05-30T10:57:45.415Z,24.34
2019-05-30T11:00:20.446Z,24.79
2019-05-30T11:02:52.894Z,25.06
2019-05-30T11:05:25.242Z,25.19
2019-05-30T11:08:08.769Z,23.53
2019-05-30T11:10:54.757Z,23.38
2019-05-30T11:13:26.238Z,23.53
2019-05-30T11:15:57.486Z,23.99
2019-05-30T11:18:28.641Z,23.07
2019-05-30T11:20:59.801Z,23.00
2019-05-30T11:23:31.002Z,22.70
2019-05-30T11:26:02.191Z,22.81
2019-05-30T11:28:33.386Z,22.94
2019-05-30T11:31:04.970Z,23.17
2019-05-30T11:33:36.643Z,23.73
2019-05-30T11:36:07.868Z,23.77
2019-05-30T11:38:38.996Z,22.76
2019-05-30T11:41:10.283Z,23.77
2019-05-30T11:43:41.478Z,24.52
2019-05-30T11:46:12.588Z,24.89
2019-05-30T11:48:43.851Z,25.21
2019-05-30T11:51:14.972Z,25.51
2019-05-30T11:53:46.111Z,25.55
2019-05-30T11:56:17.273Z,24.50
2019-05-30T11:58:49.787Z,24.38
2019-05-30T12:05:15.775Z,23.80
2019-05-30T12:07:46.986Z,25.98
2019-05-30T12:10:20.225Z,25.66
2019-05-30T12:12:51.539Z,25.00
2019-05-30T12:15:22.972Z,24.26
2019-05-30T12:17:55.250Z,23.60
2019-05-30T12:20:26.545Z,24.38
2019-05-30T12:22:58.099Z,25.46
2019-05-30T12:25:29.303Z,25.62
2019-05-30T12:28:00.500Z,24.83
2019-05-30T12:30:31.871Z,24.38
2019-05-30T12:33:03.010Z,25.86
2019-05-30T12:35:34.147Z,25.56
2019-05-30T12:38:06.771Z,25.95
2019-05-30T12:40:38.158Z,25.68
2019-05-30T12:43:09.309Z,25.12
2019-05-30T12:45:40.509Z,26.03
2019-05-30T12:48:11.631Z,25.87
2019-05-30T12:50:42.729Z,26.95
2019-05-30T12:53:13.890Z,27.05
2019-05-30T12:55:45.361Z,27.12
2019-05-30T12:58:16.490Z,26.99
2019-05-30T13:00:48.334Z,26.62
2019-05-30T13:03:19.847Z,26.13
2019-05-30T13:05:50.997Z,27.52
2019-05-30T13:08:22.445Z,28.46
2019-05-30T13:10:53.605Z,27.94
2019-05-30T13:13:24.751Z,26.63
2019-05-30T13:15:56.529Z,26.08
2019-05-30T13:18:28.137Z,26.18
2019-05-30T13:21:00.327Z,26.03
2019-05-30T13:23:32.272Z,25.08
2019-05-30T13:26:05.931Z,25.07
2019-05-30T13:28:38.414Z,24.85
2019-05-30T13:31:09.536Z,26.23
2019-05-30T13:33:42.043Z,25.34
2019-05-30T13:36:14.401Z,26.13
2019-05-30T13:38:47.721Z,27.76
2019-05-30T13:41:42.669Z,27.50
2019-05-30T13:44:21.628Z,28.85
2019-05-30T13:46:53.988Z,26.53
2019-05-30T13:49:27.020Z,26.79
2019-05-30T13:52:00.777Z,26.94
2019-05-30T13:54:32.382Z,27.64
2019-05-30T13:57:03.761Z,28.87
2019-05-30T13:59:35.586Z,29.98
2019-05-30T14:02:08.167Z,29.54
2019-05-30T14:04:39.988Z,29.30
2019-05-30T14:07:15.621Z,29.99
2019-05-30T14:10:15.644Z,29.42
2019-05-30T14:13:00.662Z,28.74
2019-05-30T14:15:36.552Z,28.74
2019-05-30T14:18:09.086Z,28.17
2019-05-30T14:20:41.646Z,27.36
2019-05-30T14:23:15.762Z,25.89
2019-05-30T14:25:53.905Z,26.60
2019-05-30T14:28:28.580Z,26.76
2019-05-30T14:31:03.389Z,28.88
2019-05-30T14:33:35.933Z,28.84
2019-05-30T14:36:10.966Z,28.33
2019-05-30T14:38:56.773Z,28.98
2019-05-30T14:41:16.584Z,28.15
2019-05-30T14:43:49.198Z,28.15
2019-05-30T14:46:23.585Z,27.68
2019-05-30T14:48:58.070Z,28.79
2019-05-30T14:51:30.693Z,27.83
2019-05-30T14:54:02.595Z,27.83
2019-05-30T14:56:36.889Z,28.26
2019-05-30T14:59:11.151Z,28.39
2019-05-30T15:01:44.559Z,28.27
2019-05-30T15:04:17.491Z,28.02
2019-05-30T15:06:49.406Z,29.83
2019-05-30T15:09:26.176Z,29.83
2019-05-30T15:11:58.236Z,31.05
2019-05-30T15:14:29.795Z,31.05
2019-05-30T15:17:01.656Z,30.92
2019-05-30T15:19:34.304Z,31.15
2019-05-30T15:22:07.480Z,31.57
2019-05-30T15:24:39.886Z,32.35
2019-05-30T15:27:12.426Z,33.68
2019-05-30T15:29:44.259Z,34.15
2019-05-30T15:32:16.549Z,32.30
2019-05-30T15:34:49.166Z,30.17
2019-05-30T15:37:21.674Z,30.08
2019-05-30T15:39:53.236Z,30.67
2019-05-30T15:42:24.909Z,32.67
2019-05-30T15:44:57.912Z,33.06
2019-05-30T15:47:29.924Z,31.79
2019-05-30T15:50:01.666Z,31.60
2019-05-30T15:52:34.380Z,32.45
2019-05-30T15:55:09.152Z,31.99
2019-05-30T15:57:41.832Z,33.40
2019-05-30T16:03:45.266Z,33.00
2019-05-30T16:06:18.580Z,33.16
2019-05-30T16:08:51.684Z,34.67
2019-05-30T16:11:23.529Z,34.94
2019-05-30T16:13:56.233Z,35.82
2019-05-30T16:16:39.730Z,34.87
2019-05-30T16:19:15.812Z,35.10
2019-05-30T16:21:40.075Z,32.50
2019-05-30T16:24:16.611Z,34.06
2019-05-30T16:26:49.640Z,32.31
2019-05-30T16:29:21.940Z,32.00
2019-05-30T16:31:54.059Z,31.76
2019-05-30T16:34:26.484Z,32.23
2019-05-30T16:36:57.907Z,33.16
2019-05-30T16:39:29.591Z,34.64
2019-05-30T16:42:01.026Z,34.70
2019-05-30T16:44:32.158Z,35.16
2019-05-30T16:47:03.475Z,33.96
2019-05-30T16:49:34.878Z,34.00
2019-05-30T16:52:06.319Z,34.19
2019-05-30T16:54:37.616Z,35.92
2019-05-30T16:57:09.766Z,37.24
2019-05-30T16:59:42.110Z,36.26
2019-05-30T17:02:14.782Z,36.18
2019-05-30T17:04:47.900Z,35.09
2019-05-30T17:07:19.605Z,33.47
2019-05-30T17:09:51.210Z,34.46
2019-05-30T17:12:23.789Z,34.51
2019-05-30T17:14:54.995Z,33.31
2019-05-30T17:17:26.251Z,34.27
2019-05-30T17:19:57.619Z,33.81
2019-05-30T17:22:32.366Z,34.63
2019-05-30T17:25:04.010Z,33.32
2019-05-30T17:27:35.846Z,33.21
2019-05-30T17:30:12.970Z,33.48
2019-05-30T17:32:44.211Z,32.87
2019-05-30T17:35:15.450Z,32.86
2019-05-30T17:37:46.546Z,33.68
2019-05-30T17:40:18.542Z,33.81
2019-05-30T17:42:50.054Z,34.19
2019-05-30T17:45:21.522Z,34.85
2019-05-30T17:47:59.663Z,34.16
2019-05-30T17:50:27.869Z,34.16
2019-05-30T17:52:59.111Z,32.10
2019-05-30T17:55:30.237Z,32.67
2019-05-30T17:58:01.971Z,32.67
2019-05-30T18:00:33.680Z,31.93
2019-05-30T18:03:05.126Z,31.93
2019-05-30T18:05:38.458Z,31.74
2019-05-30T18:08:12.937Z,30.90
2019-05-30T18:10:53.797Z,30.70
2019-05-30T18:13:24.942Z,30.03
2019-05-30T18:15:58.943Z,28.35
2019-05-30T18:18:31.401Z,28.33
2019-05-30T18:21:03.033Z,26.66
2019-05-30T18:23:34.141Z,24.87
2019-05-30T18:26:05.457Z,23.77
2019-05-30T18:28:36.764Z,23.00
2019-05-30T18:31:08.246Z,22.31
2019-05-30T18:33:39.406Z,21.78
2019-05-30T18:36:10.544Z,21.23
2019-05-30T18:38:41.697Z,20.70
2019-05-30T18:41:16.404Z,20.29
2019-05-30T18:43:45.646Z,19.99
2019-05-30T18:46:16.788Z,19.58
2019-05-30T18:48:48.183Z,19.20
2019-05-30T18:51:19.309Z,18.82
2019-05-30T18:53:50.401Z,18.51
2019-05-30T18:56:21.488Z,18.21
2019-05-30T18:58:52.498Z,17.91
2019-05-30T19:01:23.530Z,17.63
2019-05-30T19:03:54.549Z,17.35
2019-05-30T19:06:25.739Z,17.09
2019-05-30T19:08:57.851Z,16.86
2019-05-30T19:11:33.353Z,16.62
2019-05-30T19:14:01.710Z,16.33
2019-05-30T19:16:32.813Z,16.12
2019-05-30T19:19:03.914Z,15.94
2019-05-30T19:21:36.120Z,15.74
